Time;durP1;ratioP1;P1;durP2;ratioP2;P2;SDS_P1;SDS_P2;PMS_P1;PMS_P2;Temp;Humidity;BMP_temperature;BMP_pressure;BME280_temperature;BME280_humidity;BME280_pressure;Samples;Min_cycle;Max_cycle;Signal;HPM_P1;HPM_P2
2022/03/14 00:02:23;;;;;;;12.93;9.30;;;9.00;99.90;;;;;;5058569;28;20109;-74
2022/03/14 00:04:51;;;;;;;11.38;7.97;;;9.10;99.90;;;;;;5041041;28;20045;-71
2022/03/14 00:07:17;;;;;;;12.30;8.55;;;9.10;99.90;;;;;;5041683;28;20056;-73
2022/03/14 00:09:43;;;;;;;11.88;8.13;;;9.20;99.90;;;;;;5058894;28;20033;-71
2022/03/14 00:12:23;;;;;;;10.80;7.53;;;9.20;99.90;;;;;;5041500;28;20041;-71
2022/03/14 00:14:53;;;;;;;;;;;9.20;99.90;;;;;;5041696;28;20041;-71
2022/03/14 00:17:19;;;;;;;13.13;6.63;;;9.20;99.90;;;;;;5041258;28;19977;-71
2022/03/14 00:19:45;;;;;;;11.07;7.35;;;9.20;99.90;;;;;;5025235;28;20046;-71
2022/03/14 00:22:11;;;;;;;8.90;6.55;;;9.20;99.90;;;;;;5041272;28;20060;-71
2022/03/14 00:24:37;;;;;;;10.25;6.82;;;9.30;99.90;;;;;;5041078;28;20060;-75
2022/03/14 00:27:02;;;;;;;10.18;6.80;;;9.20;99.90;;;;;;5024769;28;20041;-71
2022/03/14 00:29:28;;;;;;;8.93;6.13;;;9.30;99.90;;;;;;5041251;28;20056;-71
2022/03/14 00:31:54;;;;;;;8.60;6.35;;;9.30;99.90;;;;;;5041096;28;20064;-71
2022/03/14 00:34:20;;;;;;;6.80;5.63;;;9.40;99.90;;;;;;5024616;28;20097;-71
2022/03/14 00:36:45;;;;;;;8.52;5.70;;;9.40;99.90;;;;;;5055122;28;20045;-74
2022/03/14 00:39:11;;;;;;;9.23;5.75;;;9.50;99.90;;;;;;5024525;28;20039;-71
2022/03/14 00:41:37;;;;;;;10.15;5.65;;;9.50;99.90;;;;;;5041854;28;20051;-72
2022/03/14 00:44:03;;;;;;;6.45;4.80;;;9.50;99.90;;;;;;5024589;28;20041;-71
2022/03/14 00:46:29;;;;;;;7.63;5.38;;;9.50;99.90;;;;;;5057195;28;20021;-71
2022/03/14 00:48:55;;;;;;;7.05;5.30;;;9.60;99.90;;;;;;5024247;28;20040;-71
2022/03/14 00:51:21;;;;;;;6.10;4.97;;;9.60;99.90;;;;;;5057872;28;20044;-71
2022/03/14 00:53:47;;;;;;;7.43;5.00;;;9.60;99.90;;;;;;5041010;28;20033;-71
2022/03/14 00:56:13;;;;;;;6.25;4.82;;;9.60;99.90;;;;;;5040653;28;20076;-70
2022/03/14 00:58:39;;;;;;;9.80;5.32;;;9.60;99.90;;;;;;5040780;28;20049;-75
2022/03/14 01:01:05;;;;;;;6.35;5.00;;;9.60;99.90;;;;;;5058351;28;20044;-74
2022/03/14 01:03:32;;;;;;;6.05;4.47;;;9.50;99.90;;;;;;5040190;28;20042;-73
2022/03/14 01:05:57;;;;;;;6.20;4.53;;;9.50;99.90;;;;;;5039777;28;20111;-71
2022/03/14 01:08:23;;;;;;;6.43;4.90;;;9.50;99.90;;;;;;5023598;28;20041;-71
2022/03/14 01:10:49;;;;;;;7.50;4.50;;;9.50;99.90;;;;;;5040492;28;20048;-71
2022/03/14 01:13:15;;;;;;;6.15;4.50;;;9.50;99.90;;;;;;5024288;28;20038;-71
2022/03/14 01:15:40;;;;;;;5.93;4.18;;;9.50;99.90;;;;;;5024071;28;20404;-72
2022/03/14 01:18:09;;;;;;;7.18;4.00;;;9.50;99.90;;;;;;5040363;28;20039;-71
2022/03/14 01:20:35;;;;;;;5.70;3.80;;;9.50;99.90;;;;;;5040965;28;20072;-71
2022/03/14 01:23:01;;;;;;;5.85;4.47;;;9.60;99.90;;;;;;5024134;28;20037;-71
2022/03/14 01:25:27;;;;;;;4.68;3.80;;;9.60;99.90;;;;;;5023851;28;20056;-71
2022/03/14 01:27:54;;;;;;;5.38;3.92;;;9.60;99.90;;;;;;5057455;28;20041;-71
2022/03/14 01:30:20;;;;;;;5.15;3.88;;;9.70;99.90;;;;;;5040056;28;20025;-71
2022/03/14 01:32:46;;;;;;;4.40;3.67;;;9.70;99.90;;;;;;5057573;28;20040;-71
2022/03/14 01:35:12;;;;;;;6.25;4.00;;;9.70;99.90;;;;;;5040073;28;20030;-72
2022/03/14 01:37:38;;;;;;;8.05;3.60;;;9.60;99.90;;;;;;5040720;28;20072;-71
2022/03/14 01:40:04;;;;;;;4.88;3.70;;;9.60;99.90;;;;;;5040449;28;20033;-72
2022/03/14 01:42:30;;;;;;;6.03;3.80;;;9.70;99.90;;;;;;5039826;28;20052;-71
2022/03/14 01:44:55;;;;;;;4.88;4.10;;;9.70;99.90;;;;;;5023904;28;20037;-72
2022/03/14 01:47:21;;;;;;;4.95;3.88;;;9.60;99.90;;;;;;5039847;28;20014;-73
2022/03/14 01:49:48;;;;;;;5.30;4.10;;;9.70;99.90;;;;;;5040292;28;20075;-71
2022/03/14 01:52:15;;;;;;;4.38;3.63;;;9.60;99.90;;;;;;5023665;28;20044;-71
2022/03/14 01:54:41;;;;;;;4.43;3.55;;;9.70;99.90;;;;;;5039287;28;20080;-70
2022/03/14 01:57:08;;;;;;;4.95;3.72;;;9.60;99.90;;;;;;5040099;28;20087;-72
2022/03/14 01:59:35;;;;;;;4.80;3.80;;;9.60;99.90;;;;;;5039370;28;20035;-74
2022/03/14 02:02:01;;;;;;;4.78;3.38;;;9.60;99.90;;;;;;5039956;28;20093;-74
2022/03/14 02:04:29;;;;;;;4.88;3.70;;;9.60;99.90;;;;;;5023513;28;20581;-74
2022/03/14 02:06:57;;;;;;;5.68;3.83;;;9.60;99.90;;;;;;5023864;28;20466;-72
2022/03/14 02:09:23;;;;;;;5.10;3.85;;;9.60;99.90;;;;;;5023389;28;20037;-71
2022/03/14 02:12:08;;;;;;;4.90;3.50;;;9.60;99.90;;;;;;5039539;28;20033;-71
2022/03/14 02:14:39;;;;;;;4.93;3.92;;;9.60;99.90;;;;;;5040327;28;20458;-71
2022/03/14 02:17:13;;;;;;;5.55;3.30;;;9.60;99.90;;;;;;5022500;28;20056;-73
2022/03/14 02:19:40;;;;;;;5.80;3.65;;;9.60;99.90;;;;;;5039352;28;20089;-71
2022/03/14 02:22:12;;;;;;;4.75;3.65;;;9.60;99.90;;;;;;5039194;28;20053;-72
2022/03/14 02:24:42;;;;;;;4.53;3.58;;;9.60;99.90;;;;;;5039644;28;20033;-73
2022/03/14 02:27:08;;;;;;;6.28;4.28;;;9.60;99.90;;;;;;5022722;28;20048;-72
2022/03/14 02:29:34;;;;;;;4.13;3.40;;;9.60;99.90;;;;;;5039361;28;20029;-72
2022/03/14 02:32:00;;;;;;;4.63;3.40;;;9.60;99.90;;;;;;5039487;28;20025;-71
2022/03/14 02:34:25;;;;;;;4.95;3.80;;;9.60;99.90;;;;;;5038834;28;20065;-75
2022/03/14 02:36:51;;;;;;;7.28;3.75;;;9.60;99.90;;;;;;5039817;28;20037;-72
2022/03/14 02:39:17;;;;;;;5.28;3.38;;;9.70;99.90;;;;;;5023482;28;20412;-73
2022/03/14 02:41:43;;;;;;;5.28;4.13;;;9.70;99.90;;;;;;5022920;28;20033;-72
2022/03/14 02:44:09;;;;;;;5.63;3.75;;;9.70;99.90;;;;;;5039735;28;20037;-71
2022/03/14 02:46:39;;;;;;;4.57;3.63;;;9.60;99.90;;;;;;5038744;28;20033;-73
2022/03/14 02:49:12;;;;;;;5.30;3.70;;;9.70;99.90;;;;;;5038965;28;20044;-73
2022/03/14 02:51:38;;;;;;;4.97;3.63;;;9.70;99.90;;;;;;5039307;28;20033;-74
2022/03/14 02:54:09;;;;;;;4.90;3.60;;;9.70;99.90;;;;;;5056485;28;20049;-71
2022/03/14 02:56:35;;;;;;;4.47;3.88;;;9.70;99.90;;;;;;5038899;28;20033;-72
2022/03/14 02:59:02;;;;;;;4.18;3.22;;;9.80;99.90;;;;;;5039448;28;20035;-71
2022/03/14 03:01:28;;;;;;;4.70;3.70;;;9.80;99.90;;;;;;5036719;28;20052;-71
2022/03/14 03:03:55;;;;;;;4.13;3.45;;;9.80;99.90;;;;;;5056285;28;20034;-74
2022/03/14 03:06:22;;;;;;;4.60;3.30;;;9.80;99.90;;;;;;5023215;28;20029;-71
2022/03/14 03:08:52;;;;;;;4.65;3.30;;;9.90;99.90;;;;;;5038408;28;20056;-72
2022/03/14 03:11:19;;;;;;;5.63;3.55;;;9.90;99.90;;;;;;5038549;28;20079;-74
2022/03/14 03:13:46;;;;;;;4.38;3.35;;;10.00;99.90;;;;;;5023081;28;20055;-75
2022/03/14 03:16:16;;;;;;;4.05;2.97;;;9.90;99.90;;;;;;5022528;28;20149;-75
2022/03/14 03:18:45;;;;;;;4.95;3.40;;;10.00;99.90;;;;;;5056281;28;20093;-75
2022/03/14 03:21:12;;;;;;;4.70;3.10;;;10.00;99.90;;;;;;5038831;28;20037;-70
2022/03/14 03:23:39;;;;;;;3.70;3.40;;;10.00;99.90;;;;;;5039157;28;20478;-71
2022/03/14 03:26:05;;;;;;;4.43;3.08;;;10.00;99.90;;;;;;5039328;28;20024;-71
2022/03/14 03:28:37;;;;;;;3.45;3.15;;;10.00;99.90;;;;;;5022548;28;20041;-74
2022/03/14 03:31:07;;;;;;;4.20;3.53;;;9.90;99.90;;;;;;5039127;28;20078;-72
2022/03/14 03:33:33;;;;;;;4.13;3.47;;;9.90;99.90;;;;;;5022457;28;20040;-74
2022/03/14 03:35:59;;;;;;;3.97;3.17;;;10.00;99.90;;;;;;5056000;28;20043;-72
2022/03/14 03:38:26;;;;;;;4.10;3.58;;;10.00;99.90;;;;;;5039228;28;20041;-72
2022/03/14 03:40:52;;;;;;;3.70;3.05;;;9.90;99.90;;;;;;5038751;28;20038;-73
2022/03/14 03:43:18;;;;;;;3.85;3.33;;;9.90;99.90;;;;;;5039145;28;20040;-72
2022/03/14 03:45:44;;;;;;;3.78;3.00;;;9.90;99.90;;;;;;5022135;28;20048;-73
2022/03/14 03:48:10;;;;;;;3.22;2.60;;;9.90;99.90;;;;;;5038584;28;20033;-74
2022/03/14 03:50:38;;;;;;;4.07;3.00;;;9.90;99.90;;;;;;5022796;28;20037;-75
2022/03/14 03:53:04;;;;;;;4.40;2.97;;;9.90;99.90;;;;;;5039127;28;20060;-71
2022/03/14 03:55:30;;;;;;;3.60;3.20;;;9.90;99.90;;;;;;5056345;28;20037;-70
2022/03/14 03:57:56;;;;;;;4.13;3.10;;;10.00;99.90;;;;;;5021923;28;20045;-71
2022/03/14 04:00:22;;;;;;;4.97;2.90;;;9.90;99.90;;;;;;5038541;28;20048;-71
2022/03/14 04:02:50;;;;;;;4.30;3.28;;;9.90;99.90;;;;;;5022811;28;20069;-73
2022/03/14 04:05:16;;;;;;;4.03;3.10;;;9.90;99.90;;;;;;5055448;28;20069;-71
2022/03/14 04:07:43;;;;;;;4.22;3.13;;;9.90;99.90;;;;;;5022049;28;20068;-72
2022/03/14 04:10:12;;;;;;;3.67;3.17;;;9.90;99.90;;;;;;5038447;28;20034;-75
2022/03/14 04:12:39;;;;;;;4.70;3.80;;;9.80;99.90;;;;;;5022409;28;20042;-73
2022/03/14 04:15:09;;;;;;;3.97;3.40;;;9.90;99.90;;;;;;5038684;28;20037;-71
2022/03/14 04:17:38;;;;;;;4.38;3.50;;;9.90;99.90;;;;;;5055511;28;20060;-71
2022/03/14 04:20:06;;;;;;;4.93;3.40;;;9.90;99.90;;;;;;5037949;28;20483;-71
2022/03/14 04:22:32;;;;;;;4.10;3.40;;;9.90;99.90;;;;;;5041125;28;20024;-73
2022/03/14 04:24:59;;;;;;;4.43;3.78;;;9.90;99.90;;;;;;5042099;28;20029;-72
2022/03/14 04:27:26;;;;;;;4.07;3.47;;;9.90;99.90;;;;;;5025269;28;20033;-71
2022/03/14 04:29:52;;;;;;;4.57;3.60;;;9.90;99.90;;;;;;5042131;28;20017;-74
2022/03/14 04:32:17;;;;;;;4.15;3.60;;;9.80;99.90;;;;;;5025343;28;20133;-74
2022/03/14 04:34:44;;;;;;;5.43;3.88;;;10.00;99.90;;;;;;5041783;28;20093;-72
2022/03/14 04:37:11;;;;;;;4.80;3.58;;;10.00;99.90;;;;;;5025583;28;20033;-72
2022/03/14 04:39:37;;;;;;;5.00;3.85;;;10.00;99.90;;;;;;5025117;28;20029;-74
2022/03/14 04:42:03;;;;;;;5.15;3.88;;;10.00;99.90;;;;;;5041496;28;20021;-75
2022/03/14 04:44:29;;;;;;;5.25;4.00;;;10.00;99.90;;;;;;5041034;28;20037;-71
2022/03/14 04:46:54;;;;;;;4.43;3.55;;;10.00;99.90;;;;;;5040860;28;20097;-72
2022/03/14 04:49:20;;;;;;;4.97;3.97;;;10.00;99.90;;;;;;5041449;28;20028;-72
2022/03/14 04:51:50;;;;;;;4.63;3.78;;;9.90;99.90;;;;;;5024828;28;20033;-72
2022/03/14 04:54:16;;;;;;;4.53;3.60;;;10.00;99.90;;;;;;5041039;28;20039;-72
2022/03/14 04:56:41;;;;;;;5.95;3.75;;;10.00;99.90;;;;;;5041223;28;20038;-72
2022/03/14 04:59:07;;;;;;;5.07;4.10;;;10.00;99.90;;;;;;5041345;28;20064;-71
2022/03/14 05:01:33;;;;;;;5.68;3.97;;;10.00;99.90;;;;;;5058775;28;20033;-74
2022/03/14 05:03:59;;;;;;;3.95;3.50;;;9.90;99.90;;;;;;5041537;28;20041;-71
2022/03/14 05:06:24;;;;;;;6.00;4.00;;;9.90;99.90;;;;;;5024842;28;20038;-71
2022/03/14 05:08:50;;;;;;;4.32;3.65;;;9.90;99.90;;;;;;5057790;28;20028;-71
2022/03/14 05:11:16;;;;;;;4.35;3.95;;;9.90;99.90;;;;;;5041128;28;20095;-71
2022/03/14 05:13:42;;;;;;;5.45;4.30;;;9.90;99.90;;;;;;5024217;28;20038;-71
2022/03/14 05:16:08;;;;;;;6.28;4.32;;;9.90;99.90;;;;;;5024666;28;20053;-75
2022/03/14 05:18:34;;;;;;;5.05;4.15;;;9.90;99.90;;;;;;5024521;28;20045;-72
2022/03/14 05:21:01;;;;;;;6.47;4.22;;;9.80;99.90;;;;;;5024674;28;20045;-70
2022/03/14 05:23:28;;;;;;;5.32;4.00;;;9.90;99.90;;;;;;4997252;28;20051;-70
2022/03/14 05:25:55;;;;;;;5.03;4.40;;;9.80;99.90;;;;;;4978684;29;20122;-74
2022/03/14 05:28:22;;;;;;;5.82;4.38;;;9.80;99.90;;;;;;4962018;29;20502;-71
2022/03/14 05:30:47;;;;;;;4.85;4.00;;;9.80;99.90;;;;;;4962705;29;20031;-71
2022/03/14 05:33:13;;;;;;;5.95;4.13;;;9.70;99.90;;;;;;4962042;29;20046;-72
2022/03/14 05:35:39;;;;;;;6.88;4.78;;;9.70;99.90;;;;;;4962312;29;20055;-72
2022/03/14 05:38:05;;;;;;;7.75;4.78;;;9.70;99.90;;;;;;4978170;29;20094;-73
2022/03/14 05:40:30;;;;;;;6.63;4.55;;;9.70;99.90;;;;;;4977715;29;20039;-74
2022/03/14 05:42:57;;;;;;;6.32;4.50;;;9.70;99.90;;;;;;4978676;29;20043;-70
2022/03/14 05:45:23;;;;;;;5.93;4.82;;;9.60;99.90;;;;;;4961543;29;20036;-71
2022/03/14 05:47:50;;;;;;;6.75;4.63;;;9.50;99.90;;;;;;4960886;29;20063;-70
2022/03/14 05:50:16;;;;;;;5.93;4.90;;;9.50;99.90;;;;;;4961829;29;20066;-70
2022/03/14 05:52:45;;;;;;;6.88;5.10;;;9.50;99.90;;;;;;4962241;29;20039;-70
2022/03/14 05:55:10;;;;;;;5.78;4.70;;;9.40;99.90;;;;;;4978178;29;20103;-72
2022/03/14 05:57:36;;;;;;;6.72;5.00;;;9.40;99.90;;;;;;4961898;29;20486;-71
2022/03/14 06:00:06;;;;;;;6.47;5.03;;;9.40;99.90;;;;;;4972885;28;20073;-72
2022/03/14 06:02:36;;;;;;;6.72;4.70;;;9.40;99.90;;;;;;5020823;28;20101;-71
2022/03/14 06:05:02;;;;;;;6.57;5.20;;;9.40;99.90;;;;;;5020692;28;20037;-70
2022/03/14 06:07:27;;;;;;;6.00;5.03;;;9.30;99.90;;;;;;5020704;28;20038;-72
2022/03/14 06:09:53;;;;;;;5.68;4.60;;;9.30;99.90;;;;;;5020373;28;20044;-74
2022/03/14 06:12:27;;;;;;;7.80;5.13;;;9.30;99.90;;;;;;5036502;28;20037;-70
2022/03/14 06:14:58;;;;;;;6.70;5.40;;;9.30;99.90;;;;;;5020002;28;20068;-72
2022/03/14 06:17:25;;;;;;;6.68;5.45;;;9.20;99.90;;;;;;5020204;28;20106;-74
2022/03/14 06:19:51;;;;;;;8.52;5.22;;;9.20;99.90;;;;;;5017118;28;20069;-71
2022/03/14 06:22:18;;;;;;;7.95;5.70;;;9.20;99.90;;;;;;5036902;28;20038;-70
2022/03/14 06:24:46;;;;;;;6.22;5.35;;;9.20;99.90;;;;;;5004112;28;20022;-70
2022/03/14 06:27:15;;;;;;;6.85;5.55;;;9.20;99.90;;;;;;5019628;28;20038;-73
2022/03/14 06:29:42;;;;;;;7.43;5.60;;;9.10;99.90;;;;;;5003276;28;20033;-71
2022/03/14 06:32:08;;;;;;;7.38;5.80;;;9.10;99.90;;;;;;5019648;28;20054;-70
2022/03/14 06:34:34;;;;;;;8.05;5.82;;;9.10;99.90;;;;;;5003527;28;20053;-71
2022/03/14 06:36:59;;;;;;;6.68;5.68;;;9.10;99.90;;;;;;5036258;28;20038;-71
2022/03/14 06:39:25;;;;;;;8.45;6.00;;;9.10;99.90;;;;;;5020123;28;20097;-73
2022/03/14 06:41:51;;;;;;;7.60;5.88;;;9.10;99.90;;;;;;5019823;28;20049;-71
2022/03/14 06:44:19;;;;;;;8.32;6.35;;;9.00;99.90;;;;;;5019651;28;20038;-70
2022/03/14 06:46:45;;;;;;;7.95;6.30;;;9.10;99.90;;;;;;5020156;28;20078;-70
2022/03/14 06:49:14;;;;;;;6.85;5.80;;;9.00;99.90;;;;;;5019276;28;20081;-69
2022/03/14 06:51:41;;;;;;;8.65;6.57;;;9.00;99.90;;;;;;5019462;28;20096;-71
2022/03/14 06:54:07;;;;;;;8.07;6.38;;;9.00;99.90;;;;;;5026964;28;20026;-70
2022/03/14 06:56:33;;;;;;;9.85;7.30;;;9.00;99.90;;;;;;5039465;28;20043;-70
2022/03/14 06:58:59;;;;;;;9.77;6.60;;;9.10;99.90;;;;;;5039404;28;20045;-69
2022/03/14 07:01:25;;;;;;;9.65;6.88;;;9.00;99.90;;;;;;5039918;28;20089;-70
2022/03/14 07:03:51;;;;;;;9.50;7.13;;;9.00;99.90;;;;;;5039676;28;20044;-70
2022/03/14 07:06:16;;;;;;;9.07;6.78;;;9.00;99.90;;;;;;5038966;28;20037;-71
2022/03/14 07:08:42;;;;;;;9.02;7.10;;;9.00;99.90;;;;;;5039243;28;20037;-70
2022/03/14 07:11:08;;;;;;;10.15;7.35;;;9.00;99.90;;;;;;5039248;28;20097;-70
2022/03/14 07:13:34;;;;;;;9.30;7.05;;;9.00;99.90;;;;;;5039359;28;20029;-69
2022/03/14 07:15:59;;;;;;;10.43;7.28;;;9.00;99.90;;;;;;5056186;28;20065;-71
2022/03/14 07:18:25;;;;;;;11.10;7.90;;;9.00;99.90;;;;;;5022936;28;20042;-71
2022/03/14 07:20:50;;;;;;;13.65;8.65;;;9.00;99.90;;;;;;5056195;28;20028;-72
2022/03/14 07:23:16;;;;;;;11.00;8.00;;;9.10;99.90;;;;;;5039450;28;20048;-70
2022/03/14 07:25:42;;;;;;;10.32;7.38;;;9.00;99.90;;;;;;5055779;28;20033;-70
2022/03/14 07:28:09;;;;;;;10.10;7.70;;;9.00;99.90;;;;;;5005909;28;20033;-71
2022/03/14 07:30:37;;;;;;;11.95;8.13;;;9.00;99.90;;;;;;5039050;28;20040;-74
2022/03/14 07:33:02;;;;;;;10.82;7.93;;;9.10;99.90;;;;;;5039143;28;20063;-70
2022/03/14 07:35:29;;;;;;;10.45;7.97;;;9.10;99.90;;;;;;5038779;28;20073;-70
2022/03/14 07:37:55;;;;;;;10.75;8.25;;;9.10;99.90;;;;;;5039325;28;20041;-70
2022/03/14 07:40:22;;;;;;;10.18;8.00;;;9.10;99.90;;;;;;5038891;28;20064;-71
2022/03/14 07:42:50;;;;;;;10.85;8.40;;;9.10;99.90;;;;;;5036329;28;20049;-73
2022/03/14 07:45:20;;;;;;;10.77;7.60;;;9.10;99.90;;;;;;5056261;28;20044;-70
2022/03/14 07:47:45;;;;;;;10.77;7.85;;;9.10;99.90;;;;;;5055886;28;20056;-71
2022/03/14 07:50:15;;;;;;;10.00;8.00;;;9.10;99.90;;;;;;5038652;28;20057;-70
2022/03/14 07:52:41;;;;;;;11.38;8.38;;;9.20;99.90;;;;;;5039108;28;20040;-71
2022/03/14 07:55:07;;;;;;;14.27;8.43;;;9.20;99.90;;;;;;5038452;28;20029;-72
2022/03/14 07:57:34;;;;;;;11.60;8.93;;;9.20;99.90;;;;;;5041352;28;20510;-71
2022/03/14 08:00:00;;;;;;;13.07;9.18;;;9.20;99.90;;;;;;5026736;28;20049;-70
2022/03/14 08:02:26;;;;;;;10.88;8.50;;;9.20;99.90;;;;;;5042936;28;20045;-70
2022/03/14 08:04:51;;;;;;;12.32;8.85;;;9.10;99.90;;;;;;5059513;28;20033;-71
2022/03/14 08:07:20;;;;;;;11.05;8.88;;;9.20;99.90;;;;;;5059672;28;20033;-70
2022/03/14 08:09:48;;;;;;;13.63;9.80;;;9.20;99.90;;;;;;5042259;28;20037;-71
2022/03/14 08:12:17;;;;;;;12.88;9.18;;;9.20;99.90;;;;;;5042022;28;20043;-70
2022/03/14 08:14:43;;;;;;;13.73;9.13;;;9.20;99.90;;;;;;5042662;28;20028;-70
2022/03/14 08:17:10;;;;;;;11.90;9.63;;;9.20;99.90;;;;;;5059455;28;20058;-72
2022/03/14 08:19:35;;;;;;;11.90;9.38;;;9.20;99.90;;;;;;5042617;28;20045;-70
2022/03/14 08:22:02;;;;;;;12.90;10.35;;;9.20;99.90;;;;;;5059928;28;20026;-70
2022/03/14 08:24:28;;;;;;;14.77;10.60;;;9.20;99.90;;;;;;5059648;28;20093;-70
2022/03/14 08:26:54;;;;;;;14.15;10.18;;;9.30;99.90;;;;;;5042047;28;20029;-71
2022/03/14 08:29:20;;;;;;;11.55;9.32;;;9.30;99.90;;;;;;5042380;28;20032;-71
2022/03/14 08:31:46;;;;;;;14.13;10.05;;;9.30;99.90;;;;;;5038547;28;20077;-74
2022/03/14 08:34:13;;;;;;;13.73;10.35;;;9.30;99.90;;;;;;5038224;28;20042;-70
2022/03/14 08:36:41;;;;;;;16.98;10.82;;;9.30;99.90;;;;;;5038922;28;20097;-71
2022/03/14 08:39:08;;;;;;;15.90;11.18;;;9.30;99.90;;;;;;5038758;28;20026;-71
2022/03/14 08:41:36;;;;;;;16.17;11.00;;;9.30;99.90;;;;;;5038461;28;20069;-70
2022/03/14 08:44:06;;;;;;;14.48;10.88;;;9.30;99.90;;;;;;5005414;28;20037;-74
2022/03/14 08:46:32;;;;;;;15.25;11.23;;;9.30;99.90;;;;;;5022156;28;20042;-73
2022/03/14 08:48:58;;;;;;;14.50;11.13;;;9.20;99.90;;;;;;5038355;28;20064;-75
2022/03/14 08:51:24;;;;;;;17.67;12.45;;;9.30;99.90;;;;;;5038015;28;20122;-72
2022/03/14 08:53:50;;;;;;;17.95;12.88;;;9.30;99.90;;;;;;5022047;28;20044;-71
2022/03/14 08:56:16;;;;;;;16.30;12.30;;;9.30;99.90;;;;;;5022213;28;20050;-71
2022/03/14 08:58:41;;;;;;;16.63;12.60;;;9.30;99.90;;;;;;5021978;28;20048;-71
2022/03/14 09:01:10;;;;;;;17.65;13.13;;;9.20;99.90;;;;;;5022773;28;20085;-74
2022/03/14 09:03:39;;;;;;;19.67;13.23;;;9.20;99.90;;;;;;5057002;28;20048;-79
2022/03/14 09:06:05;;;;;;;20.10;14.45;;;9.20;99.90;;;;;;5042245;28;20041;-72
2022/03/14 09:08:31;;;;;;;22.15;15.38;;;9.10;99.90;;;;;;5041995;28;20033;-74
2022/03/14 09:11:00;;;;;;;27.00;16.98;;;9.10;99.90;;;;;;5059500;28;20032;-71
2022/03/14 09:13:28;;;;;;;24.85;17.17;;;9.10;99.90;;;;;;5058306;28;20064;-73
2022/03/14 09:15:54;;;;;;;24.42;17.25;;;9.10;99.90;;;;;;5040738;28;20036;-72
2022/03/14 09:18:21;;;;;;;38.65;22.75;;;9.10;99.90;;;;;;5041168;28;20065;-74
2022/03/14 09:20:48;;;;;;;27.88;18.58;;;9.00;99.90;;;;;;5058447;28;20014;-73
2022/03/14 09:23:13;;;;;;;29.00;19.48;;;9.00;99.90;;;;;;5024614;28;20030;-73
2022/03/14 09:25:39;;;;;;;31.15;20.35;;;9.10;99.90;;;;;;5057601;28;20040;-74
2022/03/14 09:28:05;;;;;;;26.20;18.20;;;9.00;99.90;;;;;;5057732;28;20033;-72
2022/03/14 09:30:31;;;;;;;26.60;17.13;;;9.00;99.90;;;;;;5040500;28;20076;-72
2022/03/14 09:32:56;;;;;;;23.17;15.23;;;9.00;99.90;;;;;;5040878;28;20033;-74
2022/03/14 09:35:24;;;;;;;24.67;15.60;;;9.00;99.90;;;;;;5057566;28;20028;-72
2022/03/14 09:37:50;;;;;;;21.85;13.65;;;9.00;99.90;;;;;;5039929;28;20063;-72
2022/03/14 09:40:19;;;;;;;20.67;13.48;;;9.00;99.90;;;;;;5054922;28;20048;-73
2022/03/14 09:42:48;;;;;;;19.77;12.30;;;9.00;99.90;;;;;;5057565;28;20030;-72
2022/03/14 09:45:14;;;;;;;17.37;10.07;;;8.90;99.90;;;;;;5057107;28;20090;-75
2022/03/14 09:47:43;;;;;;;17.48;10.27;;;9.00;99.90;;;;;;5023335;28;20040;-73
2022/03/14 09:50:12;;;;;;;15.38;10.40;;;8.90;99.90;;;;;;5040037;28;20091;-73
2022/03/14 09:52:40;;;;;;;17.20;11.32;;;8.90;99.90;;;;;;5037131;28;20056;-73
2022/03/14 09:55:08;;;;;;;17.83;11.35;;;8.90;99.90;;;;;;5039918;28;20104;-72
2022/03/14 09:57:35;;;;;;;19.08;12.38;;;8.90;99.90;;;;;;5040665;28;20041;-71
2022/03/14 10:00:02;;;;;;;25.90;13.93;;;8.90;99.90;;;;;;5040087;28;20105;-71
2022/03/14 10:02:28;;;;;;;24.55;14.70;;;8.90;99.90;;;;;;5036964;28;20088;-72
2022/03/14 10:04:54;;;;;;;24.95;14.65;;;8.90;99.90;;;;;;5057167;28;20044;-73
2022/03/14 10:07:21;;;;;;;27.45;16.27;;;8.90;99.90;;;;;;5040084;28;20041;-76
2022/03/14 10:09:47;;;;;;;25.75;15.93;;;8.90;99.90;;;;;;5057096;28;20017;-71
2022/03/14 10:12:14;;;;;;;28.10;15.82;;;8.90;99.90;;;;;;5040468;28;20095;-71
2022/03/14 10:14:40;;;;;;;32.15;18.13;;;8.90;99.90;;;;;;5040514;28;20045;-73
2022/03/14 10:17:05;;;;;;;30.63;17.85;;;9.00;99.90;;;;;;5057203;28;20076;-70
2022/03/14 10:19:34;;;;;;;28.15;17.05;;;8.90;99.90;;;;;;5056364;28;20037;-71
2022/03/14 10:22:18;;;;;;;31.13;17.17;;;8.90;99.90;;;;;;5056987;28;20037;-73
2022/03/14 10:24:46;;;;;;;28.38;16.10;;;8.90;99.90;;;;;;5056822;28;20021;-72
2022/03/14 10:27:16;;;;;;;29.55;16.10;;;9.00;99.90;;;;;;5056963;28;20079;-72
2022/03/14 10:29:44;;;;;;;27.08;15.13;;;9.00;99.90;;;;;;5054299;28;20037;-72
2022/03/14 10:32:30;;;;;;;27.00;14.90;;;9.00;99.90;;;;;;5039181;28;20045;-73
2022/03/14 10:35:06;;;;;;;30.05;14.15;;;9.00;99.90;;;;;;5039374;28;20025;-71
2022/03/14 10:37:34;;;;;;;30.05;15.30;;;9.10;99.90;;;;;;5055299;28;20033;-71
2022/03/14 10:40:06;;;;;;;25.95;13.57;;;9.10;99.90;;;;;;5039119;28;20031;-73
2022/03/14 10:42:42;;;;;;;29.70;13.50;;;9.10;99.90;;;;;;5056075;28;20041;-73
2022/03/14 10:45:15;;;;;;;21.88;12.27;;;9.20;99.90;;;;;;5056070;28;20039;-72
2022/03/14 10:47:46;;;;;;;23.27;12.10;;;9.20;99.90;;;;;;5038987;28;20041;-73
2022/03/14 10:50:33;;;;;;;25.02;11.45;;;9.20;99.90;;;;;;5055628;28;20041;-72
2022/03/14 10:53:08;;;;;;;21.95;11.32;;;9.30;99.90;;;;;;5039140;28;20042;-71
2022/03/14 10:55:57;;;;;;;24.42;11.07;;;9.30;99.90;;;;;;5039119;28;20049;-73
2022/03/14 10:58:33;;;;;;;21.85;9.18;;;9.30;99.90;;;;;;5038707;28;20024;-72
2022/03/14 11:01:10;;;;;;;20.60;10.20;;;9.30;99.90;;;;;;5055816;28;20040;-72
2022/03/14 11:03:36;;;;;;;18.92;8.20;;;9.30;99.90;;;;;;5038602;28;20072;-74
2022/03/14 11:06:06;;;;;;;23.65;8.75;;;9.30;99.90;;;;;;5038843;28;20048;-72
2022/03/14 11:08:33;;;;;;;17.50;8.00;;;9.40;99.90;;;;;;5055935;28;20057;-74
2022/03/14 11:11:02;;;;;;;14.18;7.68;;;9.40;99.90;;;;;;5055616;28;20060;-72
2022/03/14 11:13:29;;;;;;;14.57;6.85;;;9.50;99.90;;;;;;5035868;28;20064;-75
2022/03/14 11:15:56;;;;;;;15.98;7.45;;;9.50;99.90;;;;;;5035987;28;20071;-72
2022/03/14 11:18:24;;;;;;;19.10;6.93;;;9.50;99.90;;;;;;5051667;28;20045;-74
2022/03/14 11:20:53;;;;;;;15.43;6.47;;;9.60;99.90;;;;;;5053295;28;20038;-72
2022/03/14 11:23:20;;;;;;;18.35;6.97;;;9.70;99.90;;;;;;5038987;28;20045;-73
2022/03/14 11:25:46;;;;;;;18.35;5.95;;;9.80;99.90;;;;;;5056232;28;20034;-75
2022/03/14 11:28:18;;;;;;;13.73;5.55;;;9.80;99.90;;;;;;5055735;28;20063;-72
2022/03/14 11:30:56;;;;;;;18.88;5.80;;;9.90;99.90;;;;;;5039729;28;20097;-74
2022/03/14 11:33:23;;;;;;;11.25;5.00;;;9.90;99.90;;;;;;5041852;28;20068;-72
2022/03/14 11:35:51;;;;;;;19.58;5.65;;;9.90;99.90;;;;;;5042573;28;20037;-75
2022/03/14 11:38:17;;;;;;;15.98;4.90;;;9.90;99.90;;;;;;5042762;28;20037;-76
2022/03/14 11:40:44;;;;;;;12.50;5.07;;;10.00;99.90;;;;;;5042358;28;20092;-73
2022/03/14 11:43:11;;;;;;;16.55;5.50;;;9.90;99.90;;;;;;5059643;28;20041;-75
2022/03/14 11:45:37;;;;;;;13.57;5.15;;;9.90;99.90;;;;;;5026541;28;20018;-73
2022/03/14 11:48:05;;;;;;;13.60;5.60;;;10.10;99.90;;;;;;5059768;28;20036;-72
2022/03/14 11:50:53;;;;;;;16.67;5.43;;;10.00;99.90;;;;;;5059553;28;20036;-75
2022/03/14 11:53:21;;;;;;;13.77;5.22;;;10.00;99.90;;;;;;5052693;28;20042;-72
2022/03/14 11:55:59;;;;;;;14.70;5.55;;;10.10;99.90;;;;;;5059105;28;20048;-75
2022/03/14 11:58:38;;;;;;;16.48;5.93;;;10.10;99.90;;;;;;5042212;28;20104;-73
2022/03/14 12:01:23;;;;;;;14.93;5.78;;;10.10;99.90;;;;;;5026073;28;20029;-72
2022/03/14 12:03:57;;;;;;;11.75;6.47;;;10.10;99.90;;;;;;5042541;28;20061;-73
2022/03/14 12:06:45;;;;;;;15.00;6.70;;;10.20;99.90;;;;;;5058849;28;20021;-72
2022/03/14 12:09:31;;;;;;;12.27;6.90;;;10.30;99.90;;;;;;5059268;28;20061;-72
2022/03/14 12:12:14;;;;;;;16.53;8.13;;;10.30;99.90;;;;;;5042876;28;20051;-76
2022/03/14 12:14:50;;;;;;;21.20;8.50;;;10.50;99.90;;;;;;5018683;28;20028;-72
2022/03/14 12:17:16;;;;;;;19.20;10.25;;;10.60;99.90;;;;;;5001952;28;20054;-71
2022/03/14 12:19:54;;;;;;;18.67;11.35;;;10.80;99.90;;;;;;5018481;28;20022;-72
2022/03/14 12:22:28;;;;;;;19.98;11.55;;;10.80;99.90;;;;;;4987045;28;20073;-72
2022/03/14 12:24:55;;;;;;;21.80;12.55;;;10.80;99.90;;;;;;5018016;28;20042;-73
2022/03/14 12:27:35;;;;;;;21.98;12.07;;;10.90;99.90;;;;;;5001841;28;20042;-71
2022/03/14 12:30:16;;;;;;;;;;;10.90;99.90;;;;;;5003019;28;20053;-71
2022/03/14 12:32:45;;;;;;;21.73;12.32;;;11.00;99.90;;;;;;5018184;28;19917;-74
2022/03/14 12:35:22;;;;;;;22.48;14.77;;;11.00;99.90;;;;;;5002356;28;20105;-74
2022/03/14 12:37:52;;;;;;;24.77;13.95;;;11.00;99.90;;;;;;5002039;28;20042;-73
2022/03/14 12:40:20;;;;;;;25.13;14.75;;;11.10;99.90;;;;;;5024580;28;20032;-74
2022/03/14 12:42:54;;;;;;;23.48;14.65;;;11.10;99.90;;;;;;5058093;28;20026;-72
2022/03/14 12:45:31;;;;;;;24.02;14.18;;;11.10;99.90;;;;;;5041579;28;20048;-75
2022/03/14 12:48:12;;;;;;;23.63;14.73;;;11.20;99.90;;;;;;5041865;28;20057;-72
2022/03/14 12:50:44;;;;;;;20.55;14.13;;;11.20;99.90;;;;;;5059145;28;20037;-72
2022/03/14 12:53:13;;;;;;;23.00;14.60;;;11.30;99.90;;;;;;5041946;28;20029;-72